Time;durP1;ratioP1;P1;durP2;ratioP2;P2;SDS_P1;SDS_P2;PMS_P1;PMS_P2;Temp;Humidity;BMP_temperature;BMP_pressure;BME280_temperature;BME280_humidity;BME280_pressure;Samples;Min_cycle;Max_cycle;Signal;HPM_P1;HPM_P2
2023/12/05 00:45:58;;;;;;;17.60;14.80;;;2.20;99.90;;;;;;5829215;24;20459;-78
2023/12/05 00:56:09;;;;;;;14.60;13.10;;;2.20;99.90;;;;;;6057438;23;20478;-80
2023/12/05 01:15:55;;;;;;;6.40;5.80;;;2.80;99.90;;;;;;6274883;22;20402;-78
2023/12/05 02:04:12;;;;;;;5.20;4.30;;;3.80;99.90;;;;;;6010182;23;20515;-78
2023/12/05 02:07:19;;;;;;;;;;;;;;;;;;;;;
2023/12/05 02:21:18;;;;;;;4.80;4.40;;;3.90;99.90;;;;;;6170027;23;20436;-77
2023/12/05 02:31:27;;;;;;;4.77;4.30;;;3.80;99.90;;;;;;6238661;22;20417;-80
2023/12/05 02:34:33;;;;;;;4.93;4.53;;;3.80;99.90;;;;;;6263426;22;20482;-81
2023/12/05 04:07:18;;;;;;;5.00;4.53;;;3.80;99.90;;;;;;5930758;23;20576;-80
2023/12/05 04:13:44;;;;;;;5.00;4.60;;;3.80;99.90;;;;;;6277660;22;20455;-80
2023/12/05 04:16:24;;;;;;;5.87;4.87;;;3.90;99.90;;;;;;6285861;22;20438;-80
2023/12/05 04:19:01;;;;;;;7.33;5.03;;;3.80;99.90;;;;;;6282007;22;20406;-80
2023/12/05 04:21:49;;;;;;;5.27;4.87;;;3.80;99.90;;;;;;6279766;22;20522;-77
2023/12/05 04:24:33;;;;;;;5.97;5.37;;;3.80;99.90;;;;;;6282764;22;20785;-77
2023/12/05 04:30:16;;;;;;;5.30;4.90;;;3.60;99.90;;;;;;6219702;23;20924;-77
2023/12/05 04:33:23;;;;;;;5.63;5.03;;;3.90;99.90;;;;;;6218726;23;20424;-77
2023/12/05 04:36:02;;;;;;;5.13;4.73;;;3.90;99.90;;;;;;6126760;23;20448;-78
2023/12/05 04:38:40;;;;;;;4.80;4.30;;;3.90;99.90;;;;;;6127971;23;20412;-79
2023/12/05 04:41:33;;;;;;;5.27;4.77;;;3.90;99.90;;;;;;6128680;23;20514;-81
2023/12/05 04:44:27;;;;;;;4.50;4.10;;;3.90;99.90;;;;;;6126826;23;20455;-79
2023/12/05 04:46:59;;;;;;;4.83;4.33;;;4.00;99.90;;;;;;6199733;22;20412;-77
2023/12/05 04:50:25;;;;;;;5.17;4.67;;;4.00;99.90;;;;;;6281117;22;20424;-79
2023/12/05 04:53:20;;;;;;;5.90;5.30;;;4.00;99.90;;;;;;6278511;22;20874;-78
2023/12/05 04:56:01;;;;;;;4.37;3.73;;;4.00;99.90;;;;;;6280744;22;20460;-79
2023/12/05 04:58:40;;;;;;;4.83;4.43;;;4.10;99.90;;;;;;6285501;22;20422;-79
2023/12/05 05:01:23;;;;;;;4.20;3.90;;;4.10;99.90;;;;;;6283984;22;20443;-79
2023/12/05 05:03:59;;;;;;;4.47;4.10;;;4.00;99.90;;;;;;6288776;22;20521;-79
2023/12/05 05:06:41;;;;;;;4.23;3.90;;;4.10;99.90;;;;;;6288879;22;20494;-80
2023/12/05 05:09:20;;;;;;;4.43;4.03;;;4.10;99.90;;;;;;6288971;22;20439;-79
2023/12/05 05:11:57;;;;;;;3.80;3.50;;;4.10;99.90;;;;;;6287971;22;20479;-80
2023/12/05 05:14:43;;;;;;;4.83;4.43;;;4.20;99.90;;;;;;6287631;22;20434;-80
2023/12/05 05:17:25;;;;;;;4.13;3.80;;;4.20;99.90;;;;;;6288343;22;20915;-79
2023/12/05 05:23:22;;;;;;;5.27;4.10;;;4.20;99.90;;;;;;6262005;22;20467;-79
2023/12/05 05:26:14;;;;;;;4.80;3.47;;;4.20;99.90;;;;;;6291958;22;20392;-79
2023/12/05 05:29:24;;;;;;;5.37;3.57;;;4.30;99.90;;;;;;6287066;22;20802;-80
2023/12/05 05:32:08;;;;;;;3.67;3.37;;;4.40;99.90;;;;;;6283416;22;20407;-78
2023/12/05 05:34:53;;;;;;;3.03;2.83;;;4.40;99.90;;;;;;6285836;22;20430;-80
2023/12/05 05:55:07;;;;;;;3.93;3.63;;;4.30;99.90;;;;;;6209151;23;20419;-78
2023/12/05 05:57:48;;;;;;;3.80;3.50;;;4.40;99.90;;;;;;6254608;23;20432;-81
2023/12/05 06:00:24;;;;;;;3.70;3.40;;;4.40;99.90;;;;;;6251700;23;20427;-79
2023/12/05 06:03:03;;;;;;;4.10;3.80;;;4.40;99.90;;;;;;6251833;23;20412;-80
2023/12/05 06:05:57;;;;;;;4.27;3.53;;;4.30;99.90;;;;;;6250856;23;20418;-80
2023/12/05 06:17:53;;;;;;;4.20;3.90;;;4.50;99.90;;;;;;6116284;23;20394;-81
2023/12/05 06:20:36;;;;;;;4.00;3.70;;;4.10;99.90;;;;;;6171161;23;20469;-79
2023/12/05 06:23:15;;;;;;;6.07;3.90;;;4.40;99.90;;;;;;6255445;23;20404;-79
2023/12/05 06:25:53;;;;;;;4.17;3.73;;;4.40;99.90;;;;;;6254757;23;20860;-79
2023/12/05 06:28:45;;;;;;;4.67;4.27;;;4.40;99.90;;;;;;6254888;23;20911;-80
2023/12/05 06:31:20;;;;;;;5.03;4.53;;;4.30;99.90;;;;;;6254247;23;20410;-80
2023/12/05 06:34:05;;;;;;;4.07;3.33;;;4.00;99.90;;;;;;6251296;23;20415;-81
2023/12/05 06:36:58;;;;;;;4.47;4.00;;;4.30;99.90;;;;;;6252460;23;20413;-78
2023/12/05 06:39:34;;;;;;;5.47;4.10;;;4.30;99.90;;;;;;6253887;22;20954;-80
2023/12/05 06:45:19;;;;;;;3.70;3.40;;;4.30;99.90;;;;;;6255800;23;20395;-80
2023/12/05 06:47:58;;;;;;;4.67;4.10;;;4.30;99.90;;;;;;6256559;23;20402;-80
2023/12/05 06:50:40;;;;;;;4.17;3.67;;;4.30;99.90;;;;;;6256656;22;20510;-81
2023/12/05 06:53:36;;;;;;;6.50;4.00;;;4.30;99.90;;;;;;6262052;23;20435;-81
2023/12/05 06:56:13;;;;;;;4.77;3.77;;;4.30;99.90;;;;;;6252566;23;20405;-79
2023/12/05 06:59:00;;;;;;;3.73;3.40;;;4.20;99.90;;;;;;6252158;23;20471;-79
2023/12/05 07:02:01;;;;;;;5.17;4.50;;;4.20;99.90;;;;;;6253973;23;20450;-82
2023/12/05 07:05:12;;;;;;;4.57;4.17;;;4.20;99.90;;;;;;6241905;23;20405;-80
2023/12/05 07:08:06;;;;;;;3.77;3.53;;;4.20;99.90;;;;;;6252565;23;20413;-78
2023/12/05 07:10:49;;;;;;;4.47;4.00;;;4.20;99.90;;;;;;6256184;22;20437;-79
2023/12/05 07:13:37;;;;;;;4.30;3.43;;;4.20;99.90;;;;;;6253354;23;20419;-80
2023/12/05 07:18:59;;;;;;;6.37;3.70;;;4.20;99.90;;;;;;6254317;22;20936;-79
2023/12/05 07:22:05;;;;;;;4.00;3.70;;;4.10;99.90;;;;;;6261463;23;20444;-80
2023/12/05 07:24:49;;;;;;;4.00;3.70;;;4.10;99.90;;;;;;6261432;23;20416;-81
2023/12/05 07:27:44;;;;;;;4.63;3.30;;;4.20;99.90;;;;;;6255809;23;20432;-78
2023/12/05 07:30:22;;;;;;;3.70;3.50;;;4.30;99.90;;;;;;6256067;22;20437;-79
2023/12/05 07:33:06;;;;;;;3.90;3.60;;;4.30;99.90;;;;;;6255190;23;20409;-78
2023/12/05 07:35:44;;;;;;;3.47;3.17;;;4.30;99.90;;;;;;6253784;23;20442;-80
2023/12/05 07:38:30;;;;;;;3.30;3.10;;;4.30;99.90;;;;;;6252550;23;20409;-79
2023/12/05 07:41:01;;;;;;;5.33;3.63;;;4.40;99.90;;;;;;6250768;22;20448;-78
2023/12/05 07:43:41;;;;;;;4.63;2.77;;;4.40;99.90;;;;;;6251450;23;20768;-79
2023/12/05 07:46:36;;;;;;;4.80;3.60;;;4.50;99.90;;;;;;6252208;23;20809;-79
2023/12/05 07:49:22;;;;;;;4.63;2.97;;;4.50;99.90;;;;;;6249944;22;20440;-80
2023/12/05 07:52:33;;;;;;;3.57;3.27;;;4.50;99.90;;;;;;6249734;23;20876;-80
2023/12/05 07:55:26;;;;;;;3.20;3.00;;;4.50;99.90;;;;;;6251291;23;20416;-81
2023/12/05 07:58:21;;;;;;;3.07;2.77;;;4.60;99.90;;;;;;6250273;23;20415;-79
2023/12/05 08:07:32;;;;;;;3.73;3.20;;;4.90;99.90;;;;;;5991354;24;20396;-81
2023/12/05 08:10:45;;;;;;;4.60;2.57;;;5.00;99.90;;;;;;6164892;23;20433;-81
2023/12/05 08:13:49;;;;;;;5.57;3.00;;;5.00;99.90;;;;;;6188196;23;20415;-79
2023/12/05 08:19:39;;;;;;;6.17;3.20;;;5.30;99.90;;;;;;6182507;23;20441;-79
2023/12/05 08:22:41;;;;;;;2.90;2.70;;;5.40;99.90;;;;;;6191218;23;20482;-80
2023/12/05 08:29:04;;;;;;;3.90;2.40;;;5.80;99.90;;;;;;6175114;23;20400;-81
2023/12/05 08:32:14;;;;;;;4.40;2.80;;;6.00;99.90;;;;;;6181186;23;20416;-82
2023/12/05 08:41:34;;;;;;;2.97;2.10;;;6.70;99.90;;;;;;6252527;23;20666;-82
2023/12/05 09:28:17;;;;;;;2.17;1.50;;;8.90;99.90;;;;;;6251614;22;20424;-80
2023/12/05 09:34:58;;;;;;;2.20;2.00;;;8.90;99.90;;;;;;6072718;23;20834;-81
2023/12/05 09:38:23;;;;;;;1.93;1.80;;;9.00;99.90;;;;;;6253824;22;20427;-81
2023/12/05 09:41:05;;;;;;;1.63;1.50;;;9.20;99.90;;;;;;6274183;22;20430;-80
2023/12/05 09:43:58;;;;;;;1.93;1.70;;;9.40;99.90;;;;;;6284335;22;20409;-81
2023/12/05 09:46:38;;;;;;;5.00;1.93;;;9.30;99.90;;;;;;6283808;22;20419;-81
2023/12/05 09:49:24;;;;;;;2.10;2.00;;;9.20;99.90;;;;;;6283904;22;20775;-79
2023/12/05 09:52:06;;;;;;;3.23;1.80;;;9.30;99.90;;;;;;6285048;22;20946;-79
2023/12/05 09:55:09;;;;;;;1.67;1.57;;;9.50;99.90;;;;;;6284540;22;20408;-80
2023/12/05 09:57:51;;;;;;;2.80;1.90;;;9.60;99.90;;;;;;6285421;22;20411;-79
2023/12/05 10:00:36;;;;;;;1.57;1.47;;;9.50;99.90;;;;;;6284133;22;20489;-79
2023/12/05 10:03:13;;;;;;;1.83;1.67;;;9.60;99.90;;;;;;6285293;22;20431;-80
2023/12/05 10:06:35;;;;;;;2.83;2.63;;;9.70;99.90;;;;;;6289185;22;20424;-81
2023/12/05 10:09:40;;;;;;;2.10;1.40;;;9.60;99.90;;;;;;6288378;22;20427;-81
2023/12/05 10:12:49;;;;;;;2.03;1.93;;;9.70;99.90;;;;;;6285372;22;20411;-81
2023/12/05 10:16:03;;;;;;;1.53;1.43;;;10.00;99.90;;;;;;6258239;22;20405;-81
2023/12/05 10:19:06;;;;;;;;;;;;;;;;;;;;;
2023/12/05 10:21:44;;;;;;;1.77;1.67;;;;;;;;;;6285613;22;20453;-78
2023/12/05 10:24:33;;;;;;;1.60;1.50;;;9.90;99.90;;;;;;6286100;22;20449;-81
2023/12/05 10:30:40;;;;;;;1.73;1.63;;;9.80;99.90;;;;;;6286109;22;20475;-79
2023/12/05 10:33:26;;;;;;;4.77;2.63;;;9.80;99.90;;;;;;6285065;22;20405;-82
2023/12/05 10:36:14;;;;;;;2.00;1.50;;;9.60;99.90;;;;;;6284506;22;20446;-81
2023/12/05 10:38:57;;;;;;;2.07;1.80;;;9.90;99.90;;;;;;6285788;22;20414;-81
2023/12/05 10:44:39;;;;;;;2.03;1.83;;;10.00;99.90;;;;;;6282371;22;20896;-81
2023/12/05 10:50:24;;;;;;;1.30;1.30;;;10.30;99.90;;;;;;6262791;22;20432;-82
2023/12/05 11:00:11;;;;;;;1.80;1.40;;;10.50;99.90;;;;;;6039273;23;20793;-83
2023/12/05 11:08:50;;;;;;;1.67;1.57;;;10.40;99.90;;;;;;5921314;23;20399;-81
2023/12/05 11:11:52;;;;;;;2.67;1.53;;;10.40;99.90;;;;;;6132606;23;20436;-82
2023/12/05 11:14:52;;;;;;;1.73;1.63;;;10.40;99.90;;;;;;6129569;23;20409;-80
2023/12/05 11:21:13;;;;;;;1.97;1.50;;;10.50;99.90;;;;;;6222227;23;20418;-83
2023/12/05 11:24:38;;;;;;;1.50;1.40;;;10.50;99.90;;;;;;6256570;22;20451;-79
2023/12/05 11:31:17;;;;;;;1.43;1.33;;;10.50;99.90;;;;;;6280141;22;20432;-83
2023/12/05 11:34:29;;;;;;;2.60;1.83;;;10.40;99.90;;;;;;6261203;22;20419;-85
2023/12/05 11:37:39;;;;;;;3.27;1.63;;;10.10;99.90;;;;;;6243660;22;20565;-83
2023/12/05 11:40:50;;;;;;;1.50;1.40;;;10.10;99.90;;;;;;6285061;22;20455;-83
2023/12/05 11:43:48;;;;;;;2.07;1.87;;;9.90;99.90;;;;;;6285775;22;20507;-81
2023/12/05 11:46:54;;;;;;;1.70;1.60;;;10.00;99.90;;;;;;6287555;22;20461;-83
2023/12/05 11:57:09;;;;;;;1.40;1.30;;;9.80;99.90;;;;;;6268983;22;20398;-81
2023/12/05 12:00:00;;;;;;;2.27;2.00;;;9.60;99.90;;;;;;6289339;22;20451;-84
2023/12/05 12:03:15;;;;;;;4.30;1.60;;;9.70;99.90;;;;;;6288679;22;20512;-82
2023/12/05 12:15:23;;;;;;;1.73;1.63;;;9.40;99.90;;;;;;6286000;22;20403;-82
2023/12/05 12:18:15;;;;;;;1.20;1.20;;;9.40;99.90;;;;;;6285216;22;20419;-81
2023/12/05 12:21:14;;;;;;;1.30;1.20;;;9.30;99.90;;;;;;6297325;22;20482;-81
2023/12/05 12:24:08;;;;;;;2.23;1.60;;;9.20;99.90;;;;;;6296077;22;20445;-81
2023/12/05 12:27:26;;;;;;;1.47;1.37;;;9.20;99.90;;;;;;6296156;22;20502;-81
2023/12/05 12:33:46;;;;;;;3.03;1.97;;;9.20;99.90;;;;;;6283064;22;20423;-81
2023/12/05 12:36:32;;;;;;;1.93;1.83;;;9.10;99.90;;;;;;6226783;22;20411;-82
2023/12/05 12:39:21;;;;;;;2.00;1.80;;;9.00;99.90;;;;;;6288311;22;20434;-82
2023/12/05 12:54:43;;;;;;;1.80;1.57;;;8.80;99.90;;;;;;6279740;22;20408;-82
2023/12/05 12:57:53;;;;;;;1.67;1.30;;;8.80;99.90;;;;;;6286669;22;20400;-79
2023/12/05 13:06:46;;;;;;;1.70;1.60;;;8.90;99.90;;;;;;6264307;22;20396;-81
2023/12/05 13:25:37;;;;;;;1.73;1.60;;;8.80;99.90;;;;;;6022650;23;20405;-80
2023/12/05 13:28:57;;;;;;;2.23;1.17;;;8.80;99.90;;;;;;6056756;23;20525;-81
2023/12/05 13:35:41;;;;;;;1.70;1.50;;;8.80;99.90;;;;;;6231287;23;20441;-77
2023/12/05 13:38:42;;;;;;;1.53;1.40;;;8.90;99.90;;;;;;6214175;23;20412;-81
2023/12/05 13:41:32;;;;;;;3.87;1.70;;;8.90;99.90;;;;;;6241544;22;20492;-82
2023/12/05 13:44:29;;;;;;;3.73;1.70;;;8.90;99.90;;;;;;6242179;22;20445;-78
2023/12/05 13:47:44;;;;;;;4.40;2.20;;;8.90;99.90;;;;;;6226650;22;20394;-80
2023/12/05 13:50:41;;;;;;;1.50;1.40;;;8.90;99.90;;;;;;6185284;22;20428;-83
2023/12/05 13:53:49;;;;;;;2.00;1.80;;;8.80;99.90;;;;;;6234742;22;20477;-82
2023/12/05 13:56:39;;;;;;;1.93;1.83;;;8.80;99.90;;;;;;6226245;23;20413;-80
2023/12/05 15:10:45;;;;;;;2.20;1.27;;;7.60;99.90;;;;;;6280187;22;20426;-82
2023/12/05 15:14:08;;;;;;;;;;;;;;;;;;;;;
2023/12/05 15:16:43;;;;;;;4.13;1.60;;;7.50;99.90;;;;;;6303076;22;20467;-82
2023/12/05 15:22:08;;;;;;;2.20;1.70;;;7.40;99.90;;;;;;6284577;22;20905;-82
2023/12/05 15:24:49;;;;;;;2.20;1.57;;;7.40;99.90;;;;;;6282389;22;20403;-82
2023/12/05 15:27:38;;;;;;;1.90;1.63;;;7.40;99.90;;;;;;6284896;22;20446;-83
2023/12/05 15:30:26;;;;;;;1.93;1.83;;;7.30;99.90;;;;;;6287033;22;20410;-82
2023/12/05 15:33:21;;;;;;;3.80;2.00;;;7.30;99.90;;;;;;6282375;22;20922;-82
2023/12/05 15:36:01;;;;;;;2.30;1.60;;;7.30;99.90;;;;;;6277865;22;20412;-80
2023/12/05 15:38:53;;;;;;;3.30;1.77;;;7.30;99.90;;;;;;6286040;22;20392;-82
2023/12/05 15:41:34;;;;;;;4.10;1.70;;;7.20;99.90;;;;;;6283224;22;20488;-80
2023/12/05 15:44:19;;;;;;;1.90;1.50;;;7.20;99.90;;;;;;6285670;22;20433;-79
2023/12/05 15:46:51;;;;;;;3.10;1.63;;;7.20;99.90;;;;;;6282322;22;20412;-81
2023/12/05 15:49:29;;;;;;;5.40;1.77;;;7.10;99.90;;;;;;6286323;22;20483;-79
2023/12/05 15:51:58;;;;;;;4.60;1.30;;;7.00;99.90;;;;;;6284615;22;20409;-83
2023/12/05 15:54:53;;;;;;;5.20;1.80;;;7.00;99.90;;;;;;6281953;22;20433;-80
2023/12/05 15:57:29;;;;;;;1.53;1.43;;;7.30;99.90;;;;;;6281374;22;20413;-83
2023/12/05 16:10:37;;;;;;;3.53;1.50;;;7.00;99.90;;;;;;6073896;23;20510;-79
2023/12/05 16:13:54;;;;;;;1.67;1.57;;;6.90;99.90;;;;;;6099696;23;20509;-81
2023/12/05 16:16:32;;;;;;;2.70;1.70;;;6.80;99.90;;;;;;6241071;22;20496;-79
2023/12/05 16:57:29;;;;;;;3.40;2.07;;;6.60;99.90;;;;;;5785975;24;20425;-82
2023/12/05 17:00:20;;;;;;;2.03;1.73;;;6.50;99.90;;;;;;5944484;24;20426;-82
2023/12/05 17:12:57;;;;;;;2.20;2.03;;;6.40;99.90;;;;;;5903577;24;20792;-80
2023/12/05 17:16:24;;;;;;;1.67;1.50;;;6.50;99.90;;;;;;6031539;23;20416;-81
2023/12/05 18:07:00;;;;;;;1.30;1.30;;;6.00;99.90;;;;;;5734201;24;20484;-82
2023/12/05 18:27:33;;;;;;;2.53;1.70;;;5.80;99.90;;;;;;5815248;24;20388;-80
2023/12/05 18:46:41;;;;;;;1.37;1.27;;;5.60;99.90;;;;;;5897367;23;20483;-81
2023/12/05 18:49:11;;;;;;;2.03;1.60;;;5.60;99.90;;;;;;6041002;23;21072;-79
2023/12/05 18:51:49;;;;;;;2.53;2.30;;;5.60;99.90;;;;;;6166952;23;20414;-79
2023/12/05 18:54:33;;;;;;;1.50;1.50;;;5.50;99.90;;;;;;6191265;23;20422;-80
2023/12/05 18:57:21;;;;;;;1.37;1.37;;;5.50;99.90;;;;;;6197247;23;20510;-80
2023/12/05 18:59:57;;;;;;;2.00;1.90;;;5.60;99.90;;;;;;6197343;23;20942;-81
2023/12/05 19:02:47;;;;;;;2.10;1.50;;;5.60;99.90;;;;;;6197008;23;20415;-80
2023/12/05 19:05:40;;;;;;;1.83;1.70;;;5.50;99.90;;;;;;6198621;23;20415;-80
2023/12/05 19:08:21;;;;;;;2.00;1.90;;;5.50;99.90;;;;;;6198253;23;20438;-81
2023/12/05 19:11:15;;;;;;;1.90;1.50;;;5.50;99.90;;;;;;6200683;23;20457;-82
2023/12/05 19:13:56;;;;;;;1.60;1.50;;;5.50;99.90;;;;;;6200367;23;20407;-81
2023/12/05 19:16:44;;;;;;;2.17;2.00;;;5.50;99.90;;;;;;6202673;23;20450;-82
2023/12/05 19:19:31;;;;;;;;;;;;;;;;;;;;;
2023/12/05 19:22:07;;;;;;;1.60;1.53;;;5.50;99.90;;;;;;6200313;23;20373;-80
2023/12/05 19:24:50;;;;;;;2.17;2.07;;;5.40;99.90;;;;;;6200471;23;20901;-78
2023/12/05 19:27:55;;;;;;;1.63;1.53;;;5.40;99.90;;;;;;6195899;23;20431;-83
2023/12/05 19:30:36;;;;;;;2.40;1.70;;;5.40;99.90;;;;;;6195618;23;20926;-79
2023/12/05 19:33:13;;;;;;;1.87;1.77;;;5.40;99.90;;;;;;6199457;23;20414;-80
2023/12/05 19:36:05;;;;;;;1.60;1.50;;;5.40;99.90;;;;;;6200042;23;20953;-81
2023/12/05 19:38:53;;;;;;;1.50;1.50;;;5.40;99.90;;;;;;6198399;23;20438;-81
2023/12/05 19:41:50;;;;;;;1.80;1.70;;;5.40;99.90;;;;;;6201811;23;20421;-80
2023/12/05 19:44:32;;;;;;;1.87;1.77;;;5.40;99.90;;;;;;6200422;23;20420;-82
2023/12/05 19:47:32;;;;;;;1.70;1.67;;;5.30;99.90;;;;;;6199772;23;20398;-82
2023/12/05 19:50:13;;;;;;;2.10;2.00;;;5.30;99.90;;;;;;6168853;23;20427;-78
2023/12/05 19:53:13;;;;;;;2.23;2.13;;;5.30;99.90;;;;;;6201780;23;20418;-82
2023/12/05 19:56:08;;;;;;;1.90;1.80;;;5.30;99.90;;;;;;6202808;23;20458;-82
2023/12/05 19:59:02;;;;;;;1.67;1.63;;;5.30;99.90;;;;;;6174890;23;20760;-80
2023/12/05 20:01:56;;;;;;;2.13;2.03;;;5.30;99.90;;;;;;6169518;23;20412;-80
2023/12/05 20:04:47;;;;;;;1.70;1.60;;;5.30;99.90;;;;;;6168813;23;20416;-81
2023/12/05 20:07:23;;;;;;;1.90;1.80;;;5.30;99.90;;;;;;6169902;23;20498;-81
2023/12/05 20:10:31;;;;;;;2.10;1.90;;;5.30;99.90;;;;;;6167954;23;20504;-82
2023/12/05 20:19:47;;;;;;;2.07;1.97;;;5.30;99.90;;;;;;6163648;23;20503;-79
2023/12/05 20:26:00;;;;;;;1.60;1.50;;;5.20;99.90;;;;;;6168448;23;20411;-80
2023/12/05 20:28:40;;;;;;;1.70;1.60;;;5.00;99.90;;;;;;6171047;23;20496;-79
2023/12/05 20:31:20;;;;;;;2.90;1.80;;;5.20;99.90;;;;;;6171044;23;20434;-81
2023/12/05 20:34:00;;;;;;;1.70;1.60;;;5.20;99.90;;;;;;6171581;23;20441;-81
2023/12/05 20:36:41;;;;;;;2.57;2.37;;;5.20;99.90;;;;;;6171813;23;20891;-81
2023/12/05 20:39:42;;;;;;;1.83;1.73;;;5.20;99.90;;;;;;6170616;23;20459;-80
2023/12/05 20:45:40;;;;;;;1.50;1.47;;;5.20;99.90;;;;;;6158448;23;20396;-82
2023/12/05 20:48:23;;;;;;;1.63;1.57;;;5.20;99.90;;;;;;6168954;23;20440;-81
2023/12/05 20:54:17;;;;;;;1.87;1.80;;;5.10;99.90;;;;;;6158799;23;20395;-81
2023/12/05 20:59:57;;;;;;;2.10;1.67;;;5.10;99.90;;;;;;6130773;23;20431;-81
2023/12/05 21:02:49;;;;;;;1.83;1.77;;;5.10;99.90;;;;;;6167720;23;20411;-82
2023/12/05 21:05:42;;;;;;;2.20;2.10;;;5.10;99.90;;;;;;6168230;23;20404;-79
2023/12/05 21:08:25;;;;;;;1.80;1.70;;;5.00;99.90;;;;;;6166633;23;20591;-79
2023/12/05 21:11:14;;;;;;;2.07;1.97;;;5.00;99.90;;;;;;6169973;23;20436;-80
2023/12/05 21:13:59;;;;;;;2.00;1.90;;;5.00;99.90;;;;;;6167683;23;20840;-80
2023/12/05 21:17:01;;;;;;;2.20;2.03;;;5.00;99.90;;;;;;6166240;23;20442;-81
2023/12/05 21:19:56;;;;;;;2.00;1.90;;;5.00;99.90;;;;;;6167995;23;20428;-81
2023/12/05 21:22:37;;;;;;;1.90;1.80;;;5.00;99.90;;;;;;6166470;23;20510;-81
2023/12/05 21:25:30;;;;;;;1.83;1.73;;;5.00;99.90;;;;;;6163733;23;20416;-80
2023/12/05 21:28:15;;;;;;;1.73;1.67;;;5.00;99.90;;;;;;6165383;23;20463;-79
2023/12/05 21:34:35;;;;;;;;;;;;;;;;;;;;;
2023/12/05 21:37:53;;;;;;;1.93;1.83;;;5.00;99.90;;;;;;5985815;24;20414;-79
2023/12/05 21:43:51;;;;;;;1.83;1.73;;;5.00;99.90;;;;;;5822032;24;20445;-79
2023/12/05 21:49:16;;;;;;;1.53;1.53;;;5.00;99.90;;;;;;6070979;23;20534;-81
2023/12/05 21:52:03;;;;;;;2.37;2.17;;;5.00;99.90;;;;;;6108103;23;20934;-81
2023/12/05 21:54:44;;;;;;;2.00;1.90;;;5.00;99.90;;;;;;6132817;23;20413;-82
2023/12/05 21:57:39;;;;;;;1.57;1.57;;;5.00;99.90;;;;;;6135900;23;20473;-80
2023/12/05 22:00:38;;;;;;;1.80;1.70;;;5.00;99.90;;;;;;6135575;23;20429;-80
2023/12/05 22:03:26;;;;;;;1.70;1.60;;;5.00;99.90;;;;;;6137085;23;20413;-79
2023/12/05 22:06:06;;;;;;;2.43;1.50;;;4.90;99.90;;;;;;6138505;23;20420;-80
2023/12/05 22:11:46;;;;;;;2.07;1.57;;;4.90;99.90;;;;;;6132851;23;20436;-79
2023/12/05 22:14:52;;;;;;;1.87;1.83;;;4.90;99.90;;;;;;6134466;23;20454;-81
2023/12/05 22:17:28;;;;;;;2.03;1.77;;;4.90;99.90;;;;;;6134284;23;20475;-79
2023/12/05 22:23:44;;;;;;;1.80;1.70;;;4.80;99.90;;;;;;6075595;23;20397;-80
2023/12/05 22:26:19;;;;;;;1.80;1.70;;;4.80;99.90;;;;;;6134039;23;20439;-78
2023/12/05 22:28:59;;;;;;;1.43;1.40;;;4.80;99.90;;;;;;6134333;23;20444;-81
2023/12/05 22:31:50;;;;;;;1.43;1.43;;;4.80;99.90;;;;;;6133823;23;20466;-79
2023/12/05 22:34:39;;;;;;;;;;;;;;;;;;;;;
2023/12/05 22:37:28;;;;;;;1.50;1.40;;;4.80;99.90;;;;;;6130864;23;20451;-79
2023/12/05 23:17:14;;;;;;;2.00;1.90;;;4.80;99.90;;;;;;6126790;23;20396;-79
2023/12/05 23:27:34;;;;;;;1.90;1.80;;;4.80;99.90;;;;;;6042182;23;20399;-81
2023/12/05 23:49:58;;;;;;;;;;;;;;;;;;;;;
2023/12/05 23:59:27;;;;;;;1.50;1.40;;;4.90;99.90;;;;;;6011172;23;20417;-78
